sensor_id;sensor_type;location;lat;lon;timestamp;P1;durP1;ratioP1;P2;durP2;ratioP2
18520;SDS011;9390;51.244;6.982;2023-07-22T00:00:35;16.08;;;7.35;;
18520;SDS011;9390;51.244;6.982;2023-07-22T00:03:07;19.27;;;8.27;;
18520;SDS011;9390;51.244;6.982;2023-07-22T00:05:39;14.35;;;7.05;;
18520;SDS011;9390;51.244;6.982;2023-07-22T00:08:10;15.93;;;7.38;;
18520;SDS011;9390;51.244;6.982;2023-07-22T00:10:42;15.73;;;7.90;;
18520;SDS011;9390;51.244;6.982;2023-07-22T00:13:13;17.38;;;7.88;;
18520;SDS011;9390;51.244;6.982;2023-07-22T00:15:46;16.27;;;7.88;;
18520;SDS011;9390;51.244;6.982;2023-07-22T00:20:49;13.70;;;7.68;;
18520;SDS011;9390;51.244;6.982;2023-07-22T00:23:21;18.23;;;7.68;;
18520;SDS011;9390;51.244;6.982;2023-07-22T00:25:52;21.88;;;7.93;;
18520;SDS011;9390;51.244;6.982;2023-07-22T00:28:23;16.20;;;7.78;;
18520;SDS011;9390;51.244;6.982;2023-07-22T00:30:56;14.02;;;7.38;;
18520;SDS011;9390;51.244;6.982;2023-07-22T00:33:28;15.38;;;7.38;;
18520;SDS011;9390;51.244;6.982;2023-07-22T00:35:59;15.13;;;7.47;;
18520;SDS011;9390;51.244;6.982;2023-07-22T00:38:31;13.90;;;7.00;;
18520;SDS011;9390;51.244;6.982;2023-07-22T00:41:02;15.60;;;7.90;;
18520;SDS011;9390;51.244;6.982;2023-07-22T00:43:34;17.63;;;7.33;;
18520;SDS011;9390;51.244;6.982;2023-07-22T00:46:07;18.30;;;7.50;;
18520;SDS011;9390;51.244;6.982;2023-07-22T00:48:38;15.38;;;7.57;;
18520;SDS011;9390;51.244;6.982;2023-07-22T00:51:10;15.82;;;7.55;;
18520;SDS011;9390;51.244;6.982;2023-07-22T00:53:41;17.77;;;8.20;;
18520;SDS011;9390;51.244;6.982;2023-07-22T00:56:13;16.48;;;8.10;;
18520;SDS011;9390;51.244;6.982;2023-07-22T00:58:44;16.77;;;7.85;;
18520;SDS011;9390;51.244;6.982;2023-07-22T01:01:17;14.98;;;7.95;;
18520;SDS011;9390;51.244;6.982;2023-07-22T01:03:48;16.27;;;8.38;;
18520;SDS011;9390;51.244;6.982;2023-07-22T01:06:19;16.98;;;8.77;;
18520;SDS011;9390;51.244;6.982;2023-07-22T01:08:52;18.00;;;7.82;;
18520;SDS011;9390;51.244;6.982;2023-07-22T01:11:23;16.27;;;8.13;;
18520;SDS011;9390;51.244;6.982;2023-07-22T01:13:55;15.05;;;7.15;;
18520;SDS011;9390;51.244;6.982;2023-07-22T01:16:30;18.45;;;8.40;;
18520;SDS011;9390;51.244;6.982;2023-07-22T01:19:02;14.85;;;7.60;;
18520;SDS011;9390;51.244;6.982;2023-07-22T01:21:34;16.10;;;7.90;;
18520;SDS011;9390;51.244;6.982;2023-07-22T01:24:08;15.67;;;7.20;;
18520;SDS011;9390;51.244;6.982;2023-07-22T01:26:39;15.75;;;7.80;;
18520;SDS011;9390;51.244;6.982;2023-07-22T01:29:11;15.27;;;8.10;;
18520;SDS011;9390;51.244;6.982;2023-07-22T01:31:43;15.48;;;7.80;;
18520;SDS011;9390;51.244;6.982;2023-07-22T01:34:17;14.50;;;7.35;;
18520;SDS011;9390;51.244;6.982;2023-07-22T01:36:49;19.30;;;8.43;;
18520;SDS011;9390;51.244;6.982;2023-07-22T01:39:21;16.88;;;7.88;;
18520;SDS011;9390;51.244;6.982;2023-07-22T01:41:53;19.35;;;7.68;;
18520;SDS011;9390;51.244;6.982;2023-07-22T01:44:24;20.42;;;7.70;;
18520;SDS011;9390;51.244;6.982;2023-07-22T01:46:55;18.55;;;8.13;;
18520;SDS011;9390;51.244;6.982;2023-07-22T01:49:27;13.75;;;7.40;;
18520;SDS011;9390;51.244;6.982;2023-07-22T01:51:59;17.45;;;7.55;;
18520;SDS011;9390;51.244;6.982;2023-07-22T01:54:32;17.42;;;7.68;;
18520;SDS011;9390;51.244;6.982;2023-07-22T01:57:04;18.38;;;7.57;;
18520;SDS011;9390;51.244;6.982;2023-07-22T01:59:36;16.30;;;7.60;;
18520;SDS011;9390;51.244;6.982;2023-07-22T02:02:07;16.98;;;7.38;;
18520;SDS011;9390;51.244;6.982;2023-07-22T02:04:38;15.07;;;7.45;;
18520;SDS011;9390;51.244;6.982;2023-07-22T02:07:10;13.00;;;6.82;;
18520;SDS011;9390;51.244;6.982;2023-07-22T02:09:43;18.60;;;7.15;;
18520;SDS011;9390;51.244;6.982;2023-07-22T02:12:15;16.98;;;7.57;;
18520;SDS011;9390;51.244;6.982;2023-07-22T02:14:47;17.42;;;7.50;;
18520;SDS011;9390;51.244;6.982;2023-07-22T02:17:18;16.38;;;7.20;;
18520;SDS011;9390;51.244;6.982;2023-07-22T02:19:50;16.85;;;7.45;;
18520;SDS011;9390;51.244;6.982;2023-07-22T02:22:22;15.90;;;7.28;;
18520;SDS011;9390;51.244;6.982;2023-07-22T02:24:55;15.98;;;7.13;;
18520;SDS011;9390;51.244;6.982;2023-07-22T02:27:27;14.52;;;6.57;;
18520;SDS011;9390;51.244;6.982;2023-07-22T02:29:58;16.25;;;7.47;;
18520;SDS011;9390;51.244;6.982;2023-07-22T02:32:30;16.40;;;6.75;;
18520;SDS011;9390;51.244;6.982;2023-07-22T02:35:01;14.18;;;6.65;;
18520;SDS011;9390;51.244;6.982;2023-07-22T02:37:33;15.60;;;6.53;;
18520;SDS011;9390;51.244;6.982;2023-07-22T02:40:06;16.10;;;6.68;;
18520;SDS011;9390;51.244;6.982;2023-07-22T02:42:40;11.63;;;6.13;;
18520;SDS011;9390;51.244;6.982;2023-07-22T02:45:12;17.98;;;6.72;;
18520;SDS011;9390;51.244;6.982;2023-07-22T02:47:43;17.15;;;6.57;;
18520;SDS011;9390;51.244;6.982;2023-07-22T02:50:14;16.60;;;6.68;;
18520;SDS011;9390;51.244;6.982;2023-07-22T02:52:46;13.05;;;6.32;;
18520;SDS011;9390;51.244;6.982;2023-07-22T02:55:19;16.45;;;6.75;;
18520;SDS011;9390;51.244;6.982;2023-07-22T02:57:50;13.57;;;6.22;;
18520;SDS011;9390;51.244;6.982;2023-07-22T03:00:21;16.15;;;6.78;;
18520;SDS011;9390;51.244;6.982;2023-07-22T03:02:54;11.32;;;6.10;;
18520;SDS011;9390;51.244;6.982;2023-07-22T03:05:31;14.23;;;6.82;;
18520;SDS011;9390;51.244;6.982;2023-07-22T03:08:04;16.38;;;6.68;;
18520;SDS011;9390;51.244;6.982;2023-07-22T03:13:09;13.38;;;6.35;;
18520;SDS011;9390;51.244;6.982;2023-07-22T03:15:41;12.85;;;6.25;;
18520;SDS011;9390;51.244;6.982;2023-07-22T03:18:12;13.95;;;6.95;;
18520;SDS011;9390;51.244;6.982;2023-07-22T03:20:44;13.48;;;6.30;;
18520;SDS011;9390;51.244;6.982;2023-07-22T03:23:16;15.98;;;7.05;;
18520;SDS011;9390;51.244;6.982;2023-07-22T03:25:48;12.93;;;6.60;;
18520;SDS011;9390;51.244;6.982;2023-07-22T03:28:20;16.05;;;6.50;;
18520;SDS011;9390;51.244;6.982;2023-07-22T03:30:51;14.00;;;6.78;;
18520;SDS011;9390;51.244;6.982;2023-07-22T03:33:23;12.02;;;5.97;;
18520;SDS011;9390;51.244;6.982;2023-07-22T03:35:55;16.25;;;6.50;;
18520;SDS011;9390;51.244;6.982;2023-07-22T03:38:26;14.65;;;7.18;;
18520;SDS011;9390;51.244;6.982;2023-07-22T03:40:59;14.15;;;6.93;;
18520;SDS011;9390;51.244;6.982;2023-07-22T03:43:30;15.32;;;7.03;;
18520;SDS011;9390;51.244;6.982;2023-07-22T03:46:01;13.90;;;6.20;;
18520;SDS011;9390;51.244;6.982;2023-07-22T03:48:33;14.23;;;6.85;;
18520;SDS011;9390;51.244;6.982;2023-07-22T03:51:04;18.77;;;7.53;;
18520;SDS011;9390;51.244;6.982;2023-07-22T03:53:35;13.75;;;6.38;;
18520;SDS011;9390;51.244;6.982;2023-07-22T03:56:08;12.73;;;6.07;;
18520;SDS011;9390;51.244;6.982;2023-07-22T03:58:40;17.05;;;6.93;;
18520;SDS011;9390;51.244;6.982;2023-07-22T04:01:11;12.43;;;6.10;;
18520;SDS011;9390;51.244;6.982;2023-07-22T04:03:43;14.52;;;6.90;;
18520;SDS011;9390;51.244;6.982;2023-07-22T04:06:14;16.27;;;6.85;;
18520;SDS011;9390;51.244;6.982;2023-07-22T04:08:46;15.50;;;6.80;;
18520;SDS011;9390;51.244;6.982;2023-07-22T04:11:18;15.05;;;7.60;;
18520;SDS011;9390;51.244;6.982;2023-07-22T04:13:50;14.27;;;7.20;;
18520;SDS011;9390;51.244;6.982;2023-07-22T04:16:21;14.35;;;6.90;;
18520;SDS011;9390;51.244;6.982;2023-07-22T04:18:53;15.93;;;6.30;;
18520;SDS011;9390;51.244;6.982;2023-07-22T04:21:24;17.35;;;6.60;;
18520;SDS011;9390;51.244;6.982;2023-07-22T04:23:56;16.77;;;6.65;;
18520;SDS011;9390;51.244;6.982;2023-07-22T04:26:29;15.45;;;6.85;;
18520;SDS011;9390;51.244;6.982;2023-07-22T04:29:00;14.30;;;6.97;;
18520;SDS011;9390;51.244;6.982;2023-07-22T04:31:32;15.60;;;7.03;;
18520;SDS011;9390;51.244;6.982;2023-07-22T04:34:04;17.42;;;7.15;;
18520;SDS011;9390;51.244;6.982;2023-07-22T04:36:36;13.20;;;7.07;;
18520;SDS011;9390;51.244;6.982;2023-07-22T04:39:08;15.13;;;7.50;;
18520;SDS011;9390;51.244;6.982;2023-07-22T04:41:41;18.48;;;7.10;;
18520;SDS011;9390;51.244;6.982;2023-07-22T04:44:12;14.15;;;7.05;;
18520;SDS011;9390;51.244;6.982;2023-07-22T04:46:43;14.70;;;7.03;;
18520;SDS011;9390;51.244;6.982;2023-07-22T04:49:15;15.55;;;7.72;;
18520;SDS011;9390;51.244;6.982;2023-07-22T04:51:47;14.07;;;6.93;;
18520;SDS011;9390;51.244;6.982;2023-07-22T04:54:20;15.18;;;7.38;;
18520;SDS011;9390;51.244;6.982;2023-07-22T04:56:52;15.73;;;6.90;;
18520;SDS011;9390;51.244;6.982;2023-07-22T04:59:24;15.60;;;7.72;;
18520;SDS011;9390;51.244;6.982;2023-07-22T05:01:55;13.90;;;7.47;;
18520;SDS011;9390;51.244;6.982;2023-07-22T05:04:26;14.88;;;7.55;;
18520;SDS011;9390;51.244;6.982;2023-07-22T05:06:58;13.85;;;7.32;;
18520;SDS011;9390;51.244;6.982;2023-07-22T05:09:29;13.30;;;7.55;;
18520;SDS011;9390;51.244;6.982;2023-07-22T05:12:02;14.88;;;7.63;;
18520;SDS011;9390;51.244;6.982;2023-07-22T05:14:34;16.63;;;7.40;;
18520;SDS011;9390;51.244;6.982;2023-07-22T05:17:05;16.70;;;7.18;;
18520;SDS011;9390;51.244;6.982;2023-07-22T05:19:37;15.57;;;7.20;;
18520;SDS011;9390;51.244;6.982;2023-07-22T05:22:08;17.40;;;8.00;;
18520;SDS011;9390;51.244;6.982;2023-07-22T05:24:40;13.80;;;6.60;;
18520;SDS011;9390;51.244;6.982;2023-07-22T05:27:12;13.70;;;7.28;;
18520;SDS011;9390;51.244;6.982;2023-07-22T05:32:16;13.65;;;7.38;;
18520;SDS011;9390;51.244;6.982;2023-07-22T05:34:47;14.05;;;6.75;;
18520;SDS011;9390;51.244;6.982;2023-07-22T05:37:18;14.32;;;7.10;;
18520;SDS011;9390;51.244;6.982;2023-07-22T05:39:50;15.38;;;7.55;;
18520;SDS011;9390;51.244;6.982;2023-07-22T05:42:22;16.35;;;7.32;;
18520;SDS011;9390;51.244;6.982;2023-07-22T05:44:54;15.40;;;7.38;;
18520;SDS011;9390;51.244;6.982;2023-07-22T05:47:26;18.30;;;7.40;;
18520;SDS011;9390;51.244;6.982;2023-07-22T05:49:58;13.20;;;6.38;;
18520;SDS011;9390;51.244;6.982;2023-07-22T05:52:29;14.20;;;7.30;;
18520;SDS011;9390;51.244;6.982;2023-07-22T05:55:00;17.50;;;7.45;;
18520;SDS011;9390;51.244;6.982;2023-07-22T05:57:33;17.63;;;7.82;;
18520;SDS011;9390;51.244;6.982;2023-07-22T06:00:06;16.20;;;7.47;;
18520;SDS011;9390;51.244;6.982;2023-07-22T06:02:38;15.90;;;7.43;;
18520;SDS011;9390;51.244;6.982;2023-07-22T06:05:10;19.95;;;7.55;;
18520;SDS011;9390;51.244;6.982;2023-07-22T06:07:41;17.58;;;7.70;;
18520;SDS011;9390;51.244;6.982;2023-07-22T06:10:13;15.35;;;7.35;;
18520;SDS011;9390;51.244;6.982;2023-07-22T06:12:45;17.75;;;7.20;;
18520;SDS011;9390;51.244;6.982;2023-07-22T06:15:17;17.77;;;6.97;;
18520;SDS011;9390;51.244;6.982;2023-07-22T06:17:48;15.45;;;7.60;;
18520;SDS011;9390;51.244;6.982;2023-07-22T06:20:20;12.60;;;7.07;;
18520;SDS011;9390;51.244;6.982;2023-07-22T06:22:51;18.25;;;6.85;;
18520;SDS011;9390;51.244;6.982;2023-07-22T06:25:23;20.67;;;7.95;;
18520;SDS011;9390;51.244;6.982;2023-07-22T06:27:55;18.58;;;8.45;;
18520;SDS011;9390;51.244;6.982;2023-07-22T06:30:27;13.68;;;7.18;;
18520;SDS011;9390;51.244;6.982;2023-07-22T06:32:58;15.60;;;8.18;;
18520;SDS011;9390;51.244;6.982;2023-07-22T06:35:29;15.07;;;7.68;;
18520;SDS011;9390;51.244;6.982;2023-07-22T06:38:01;16.27;;;7.95;;
18520;SDS011;9390;51.244;6.982;2023-07-22T06:40:33;17.00;;;7.68;;
18520;SDS011;9390;51.244;6.982;2023-07-22T06:43:05;14.10;;;6.90;;
18520;SDS011;9390;51.244;6.982;2023-07-22T06:45:37;14.10;;;6.80;;
18520;SDS011;9390;51.244;6.982;2023-07-22T06:48:08;19.67;;;7.15;;
18520;SDS011;9390;51.244;6.982;2023-07-22T06:50:39;17.17;;;7.32;;
18520;SDS011;9390;51.244;6.982;2023-07-22T06:53:11;14.35;;;7.20;;
18520;SDS011;9390;51.244;6.982;2023-07-22T06:55:48;14.00;;;6.80;;
18520;SDS011;9390;51.244;6.982;2023-07-22T06:58:22;15.70;;;7.40;;
18520;SDS011;9390;51.244;6.982;2023-07-22T07:00:54;13.32;;;6.80;;
18520;SDS011;9390;51.244;6.982;2023-07-22T07:03:25;15.95;;;7.28;;
18520;SDS011;9390;51.244;6.982;2023-07-22T07:05:57;15.40;;;7.20;;
18520;SDS011;9390;51.244;6.982;2023-07-22T07:08:28;14.95;;;7.68;;
18520;SDS011;9390;51.244;6.982;2023-07-22T07:11:00;16.42;;;7.43;;
18520;SDS011;9390;51.244;6.982;2023-07-22T07:13:33;13.90;;;6.15;;
18520;SDS011;9390;51.244;6.982;2023-07-22T07:16:20;16.35;;;7.13;;
18520;SDS011;9390;51.244;6.982;2023-07-22T07:18:52;15.68;;;6.90;;
18520;SDS011;9390;51.244;6.982;2023-07-22T07:21:25;14.63;;;6.88;;
18520;SDS011;9390;51.244;6.982;2023-07-22T07:23:57;14.02;;;6.75;;
18520;SDS011;9390;51.244;6.982;2023-07-22T07:26:28;11.70;;;5.95;;
18520;SDS011;9390;51.244;6.982;2023-07-22T07:29:01;14.23;;;6.47;;
18520;SDS011;9390;51.244;6.982;2023-07-22T07:31:32;13.95;;;6.68;;
18520;SDS011;9390;51.244;6.982;2023-07-22T07:34:04;14.18;;;6.45;;
18520;SDS011;9390;51.244;6.982;2023-07-22T07:36:36;13.38;;;6.68;;
18520;SDS011;9390;51.244;6.982;2023-07-22T07:39:07;14.77;;;7.40;;
18520;SDS011;9390;51.244;6.982;2023-07-22T07:41:38;12.70;;;6.25;;
18520;SDS011;9390;51.244;6.982;2023-07-22T07:44:11;16.70;;;6.82;;
18520;SDS011;9390;51.244;6.982;2023-07-22T07:46:43;15.65;;;7.13;;
18520;SDS011;9390;51.244;6.982;2023-07-22T07:49:14;15.57;;;6.72;;
18520;SDS011;9390;51.244;6.982;2023-07-22T07:51:45;14.73;;;6.88;;
18520;SDS011;9390;51.244;6.982;2023-07-22T07:54:17;13.27;;;6.93;;
18520;SDS011;9390;51.244;6.982;2023-07-22T07:56:48;12.15;;;6.22;;
18520;SDS011;9390;51.244;6.982;2023-07-22T07:59:21;13.85;;;6.95;;
18520;SDS011;9390;51.244;6.982;2023-07-22T08:01:52;17.30;;;6.57;;
18520;SDS011;9390;51.244;6.982;2023-07-22T08:04:24;14.40;;;6.63;;
18520;SDS011;9390;51.244;6.982;2023-07-22T08:06:55;13.70;;;6.93;;
18520;SDS011;9390;51.244;6.982;2023-07-22T08:09:26;13.40;;;6.65;;
18520;SDS011;9390;51.244;6.982;2023-07-22T08:11:58;13.18;;;6.57;;
18520;SDS011;9390;51.244;6.982;2023-07-22T08:14:30;12.27;;;6.60;;
18520;SDS011;9390;51.244;6.982;2023-07-22T08:17:02;18.27;;;6.88;;
18520;SDS011;9390;51.244;6.982;2023-07-22T08:19:34;14.90;;;6.53;;
18520;SDS011;9390;51.244;6.982;2023-07-22T08:22:05;20.70;;;6.38;;
18520;SDS011;9390;51.244;6.982;2023-07-22T08:24:37;20.52;;;8.07;;
18520;SDS011;9390;51.244;6.982;2023-07-22T08:27:08;15.38;;;7.47;;
18520;SDS011;9390;51.244;6.982;2023-07-22T08:29:41;13.73;;;7.22;;
18520;SDS011;9390;51.244;6.982;2023-07-22T08:32:12;13.82;;;7.03;;
18520;SDS011;9390;51.244;6.982;2023-07-22T08:34:44;19.65;;;7.40;;
18520;SDS011;9390;51.244;6.982;2023-07-22T08:37:15;12.60;;;6.80;;
18520;SDS011;9390;51.244;6.982;2023-07-22T08:39:46;14.75;;;6.95;;
18520;SDS011;9390;51.244;6.982;2023-07-22T08:42:18;15.05;;;6.63;;
18520;SDS011;9390;51.244;6.982;2023-07-22T08:44:53;16.58;;;7.50;;
18520;SDS011;9390;51.244;6.982;2023-07-22T08:47:28;14.35;;;6.97;;
18520;SDS011;9390;51.244;6.982;2023-07-22T08:50:00;13.57;;;6.70;;
18520;SDS011;9390;51.244;6.982;2023-07-22T08:52:33;15.73;;;7.47;;
18520;SDS011;9390;51.244;6.982;2023-07-22T08:55:04;12.88;;;6.80;;
18520;SDS011;9390;51.244;6.982;2023-07-22T08:57:36;14.82;;;6.20;;
18520;SDS011;9390;51.244;6.982;2023-07-22T09:00:09;15.65;;;6.68;;
18520;SDS011;9390;51.244;6.982;2023-07-22T09:02:41;13.50;;;6.25;;
18520;SDS011;9390;51.244;6.982;2023-07-22T09:05:13;14.18;;;6.28;;
18520;SDS011;9390;51.244;6.982;2023-07-22T09:07:46;11.15;;;5.40;;
18520;SDS011;9390;51.244;6.982;2023-07-22T09:10:19;14.18;;;6.03;;
18520;SDS011;9390;51.244;6.982;2023-07-22T09:12:51;11.30;;;5.30;;
18520;SDS011;9390;51.244;6.982;2023-07-22T09:15:24;11.65;;;5.65;;
18520;SDS011;9390;51.244;6.982;2023-07-22T09:20:27;16.67;;;6.75;;
18520;SDS011;9390;51.244;6.982;2023-07-22T09:22:59;11.05;;;5.68;;
18520;SDS011;9390;51.244;6.982;2023-07-22T09:25:31;11.63;;;5.60;;
18520;SDS011;9390;51.244;6.982;2023-07-22T09:28:03;14.10;;;5.37;;
18520;SDS011;9390;51.244;6.982;2023-07-22T09:30:36;12.13;;;5.80;;
18520;SDS011;9390;51.244;6.982;2023-07-22T09:33:19;10.50;;;5.40;;
18520;SDS011;9390;51.244;6.982;2023-07-22T09:35:51;14.38;;;5.40;;
18520;SDS011;9390;51.244;6.982;2023-07-22T09:38:23;11.13;;;5.47;;
18520;SDS011;9390;51.244;6.982;2023-07-22T09:40:55;12.50;;;4.90;;
18520;SDS011;9390;51.244;6.982;2023-07-22T09:43:26;12.75;;;4.72;;
18520;SDS011;9390;51.244;6.982;2023-07-22T09:46:06;10.60;;;5.00;;
18520;SDS011;9390;51.244;6.982;2023-07-22T09:48:39;8.57;;;4.60;;
18520;SDS011;9390;51.244;6.982;2023-07-22T09:51:12;8.98;;;4.70;;
18520;SDS011;9390;51.244;6.982;2023-07-22T09:53:45;10.50;;;4.70;;
18520;SDS011;9390;51.244;6.982;2023-07-22T09:56:16;11.20;;;4.40;;
18520;SDS011;9390;51.244;6.982;2023-07-22T09:58:48;10.13;;;4.85;;
18520;SDS011;9390;51.244;6.982;2023-07-22T10:01:22;11.02;;;4.75;;
18520;SDS011;9390;51.244;6.982;2023-07-22T10:03:55;10.13;;;5.10;;
18520;SDS011;9390;51.244;6.982;2023-07-22T10:06:27;10.30;;;4.97;;
18520;SDS011;9390;51.244;6.982;2023-07-22T10:08:59;13.75;;;4.95;;
18520;SDS011;9390;51.244;6.982;2023-07-22T10:11:33;9.13;;;4.35;;
18520;SDS011;9390;51.244;6.982;2023-07-22T10:14:06;9.88;;;4.70;;
18520;SDS011;9390;51.244;6.982;2023-07-22T10:16:39;8.30;;;4.03;;
18520;SDS011;9390;51.244;6.982;2023-07-22T10:19:11;9.57;;;3.08;;
18520;SDS011;9390;51.244;6.982;2023-07-22T10:21:42;6.85;;;3.08;;
18520;SDS011;9390;51.244;6.982;2023-07-22T10:24:14;5.55;;;2.60;;
18520;SDS011;9390;51.244;6.982;2023-07-22T10:26:46;4.13;;;2.17;;
18520;SDS011;9390;51.244;6.982;2023-07-22T10:29:21;6.47;;;2.58;;
18520;SDS011;9390;51.244;6.982;2023-07-22T10:31:54;6.45;;;2.60;;
18520;SDS011;9390;51.244;6.982;2023-07-22T10:34:25;9.20;;;3.10;;
18520;SDS011;9390;51.244;6.982;2023-07-22T10:36:57;4.85;;;2.25;;
18520;SDS011;9390;51.244;6.982;2023-07-22T10:39:29;6.53;;;2.72;;
18520;SDS011;9390;51.244;6.982;2023-07-22T10:42:00;5.90;;;2.50;;
18520;SDS011;9390;51.244;6.982;2023-07-22T10:44:35;6.85;;;2.85;;
18520;SDS011;9390;51.244;6.982;2023-07-22T10:47:09;6.35;;;2.30;;
18520;SDS011;9390;51.244;6.982;2023-07-22T10:49:44;7.35;;;2.90;;
18520;SDS011;9390;51.244;6.982;2023-07-22T10:52:30;5.85;;;2.63;;
18520;SDS011;9390;51.244;6.982;2023-07-22T10:55:16;6.38;;;2.72;;
18520;SDS011;9390;51.244;6.982;2023-07-22T10:57:48;7.75;;;3.20;;
18520;SDS011;9390;51.244;6.982;2023-07-22T11:00:21;5.72;;;2.40;;
18520;SDS011;9390;51.244;6.982;2023-07-22T11:03:09;5.97;;;2.28;;
18520;SDS011;9390;51.244;6.982;2023-07-22T11:05:49;6.95;;;2.53;;
18520;SDS011;9390;51.244;6.982;2023-07-22T11:08:35;6.93;;;2.97;;
18520;SDS011;9390;51.244;6.982;2023-07-22T11:11:07;6.55;;;2.60;;
18520;SDS011;9390;51.244;6.982;2023-07-22T11:13:39;6.43;;;2.63;;
18520;SDS011;9390;51.244;6.982;2023-07-22T11:16:11;7.20;;;3.17;;
18520;SDS011;9390;51.244;6.982;2023-07-22T11:18:44;6.53;;;2.50;;
18520;SDS011;9390;51.244;6.982;2023-07-22T11:23:46;6.60;;;2.50;;
18520;SDS011;9390;51.244;6.982;2023-07-22T11:26:18;7.50;;;2.40;;
18520;SDS011;9390;51.244;6.982;2023-07-22T11:28:50;5.90;;;2.38;;
18520;SDS011;9390;51.244;6.982;2023-07-22T11:31:25;8.02;;;2.63;;
18520;SDS011;9390;51.244;6.982;2023-07-22T11:34:03;6.40;;;2.50;;
18520;SDS011;9390;51.244;6.982;2023-07-22T11:39:06;7.22;;;2.78;;
18520;SDS011;9390;51.244;6.982;2023-07-22T11:41:38;5.90;;;2.40;;
18520;SDS011;9390;51.244;6.982;2023-07-22T11:44:12;6.60;;;2.28;;
18520;SDS011;9390;51.244;6.982;2023-07-22T11:46:48;9.60;;;2.40;;
18520;SDS011;9390;51.244;6.982;2023-07-22T11:49:25;4.97;;;2.00;;
18520;SDS011;9390;51.244;6.982;2023-07-22T11:51:58;5.70;;;2.30;;
18520;SDS011;9390;51.244;6.982;2023-07-22T11:54:31;4.93;;;2.33;;
18520;SDS011;9390;51.244;6.982;2023-07-22T11:57:10;6.18;;;2.15;;
18520;SDS011;9390;51.244;6.982;2023-07-22T11:59:43;6.80;;;2.40;;
18520;SDS011;9390;51.244;6.982;2023-07-22T12:02:15;5.10;;;2.30;;
18520;SDS011;9390;51.244;6.982;2023-07-22T12:04:52;6.15;;;2.65;;
18520;SDS011;9390;51.244;6.982;2023-07-22T12:07:24;11.23;;;2.40;;
18520;SDS011;9390;51.244;6.982;2023-07-22T12:09:56;5.65;;;2.38;;
18520;SDS011;9390;51.244;6.982;2023-07-22T12:12:32;7.15;;;2.90;;
18520;SDS011;9390;51.244;6.982;2023-07-22T12:15:08;6.25;;;2.78;;
18520;SDS011;9390;51.244;6.982;2023-07-22T12:17:43;5.85;;;2.72;;
18520;SDS011;9390;51.244;6.982;2023-07-22T12:20:17;5.15;;;2.22;;
18520;SDS011;9390;51.244;6.982;2023-07-22T12:22:49;8.15;;;2.78;;
18520;SDS011;9390;51.244;6.982;2023-07-22T12:25:21;6.07;;;2.40;;
18520;SDS011;9390;51.244;6.982;2023-07-22T12:27:52;11.52;;;2.55;;
18520;SDS011;9390;51.244;6.982;2023-07-22T12:30:24;4.85;;;2.55;;
18520;SDS011;9390;51.244;6.982;2023-07-22T12:32:57;7.50;;;2.60;;
18520;SDS011;9390;51.244;6.982;2023-07-22T12:35:30;5.75;;;2.83;;
18520;SDS011;9390;51.244;6.982;2023-07-22T12:40:33;6.15;;;2.58;;
18520;SDS011;9390;51.244;6.982;2023-07-22T12:43:04;6.80;;;2.28;;
18520;SDS011;9390;51.244;6.982;2023-07-22T12:45:35;5.55;;;2.40;;
18520;SDS011;9390;51.244;6.982;2023-07-22T12:48:07;6.07;;;2.35;;
18520;SDS011;9390;51.244;6.982;2023-07-22T12:50:40;7.72;;;2.40;;
18520;SDS011;9390;51.244;6.982;2023-07-22T12:55:43;6.13;;;2.15;;
18520;SDS011;9390;51.244;6.982;2023-07-22T12:58:14;5.85;;;2.40;;
18520;SDS011;9390;51.244;6.982;2023-07-22T13:00:46;7.10;;;2.95;;
18520;SDS011;9390;51.244;6.982;2023-07-22T13:03:17;5.95;;;2.50;;
18520;SDS011;9390;51.244;6.982;2023-07-22T13:05:50;8.98;;;3.00;;
18520;SDS011;9390;51.244;6.982;2023-07-22T13:10:52;6.22;;;2.42;;
18520;SDS011;9390;51.244;6.982;2023-07-22T13:13:24;5.82;;;2.58;;
18520;SDS011;9390;51.244;6.982;2023-07-22T13:15:55;6.10;;;2.60;;
18520;SDS011;9390;51.244;6.982;2023-07-22T13:18:27;10.05;;;3.00;;
18520;SDS011;9390;51.244;6.982;2023-07-22T13:21:00;5.05;;;2.47;;
18520;SDS011;9390;51.244;6.982;2023-07-22T13:26:02;6.55;;;2.33;;
18520;SDS011;9390;51.244;6.982;2023-07-22T13:28:34;6.95;;;2.50;;
18520;SDS011;9390;51.244;6.982;2023-07-22T13:31:05;6.25;;;2.42;;
18520;SDS011;9390;51.244;6.982;2023-07-22T13:33:36;4.35;;;2.33;;
18520;SDS011;9390;51.244;6.982;2023-07-22T13:36:09;8.70;;;2.35;;
